createdAt,value
2019-06-20T00:03:35.751Z,2.73
2019-06-20T00:08:26.689Z,3.13
2019-06-20T00:13:17.593Z,2.80
2019-06-20T00:18:08.518Z,2.50
2019-06-20T00:22:59.411Z,2.40
2019-06-20T00:27:50.400Z,2.30
2019-06-20T00:32:42.094Z,2.40
2019-06-20T00:37:33.021Z,2.20
2019-06-20T00:42:23.917Z,2.27
2019-06-20T00:47:14.851Z,2.40
2019-06-20T00:52:05.754Z,2.10
2019-06-20T00:56:56.714Z,2.50
2019-06-20T01:01:47.618Z,2.33
2019-06-20T01:06:38.564Z,2.30
2019-06-20T01:11:31.029Z,2.40
2019-06-20T01:16:21.930Z,2.50
2019-06-20T01:21:12.865Z,2.27
2019-06-20T01:26:03.897Z,2.47
2019-06-20T01:30:54.864Z,2.00
2019-06-20T01:35:45.795Z,2.25
2019-06-20T01:40:36.765Z,2.83
2019-06-20T01:45:27.704Z,2.67
2019-06-20T01:50:19.431Z,2.53
2019-06-20T01:55:11.142Z,2.40
2019-06-20T02:00:02.190Z,2.70
2019-06-20T02:04:53.901Z,2.60
2019-06-20T02:09:44.922Z,2.40
2019-06-20T02:14:35.839Z,2.40
2019-06-20T02:19:26.854Z,2.40
2019-06-20T02:24:17.776Z,2.40
2019-06-20T02:29:10.197Z,2.60
2019-06-20T02:34:01.105Z,2.27
2019-06-20T02:38:52.071Z,2.60
2019-06-20T02:43:42.987Z,2.70
2019-06-20T02:48:33.915Z,2.33
2019-06-20T02:53:24.934Z,2.13
2019-06-20T02:58:15.955Z,2.50
2019-06-20T03:03:06.982Z,2.73
2019-06-20T03:07:58.018Z,2.10
2019-06-20T03:12:49.746Z,2.30
2019-06-20T03:17:40.780Z,2.40
2019-06-20T03:22:32.509Z,3.17
2019-06-20T03:27:24.233Z,3.53
2019-06-20T03:32:15.263Z,2.50
2019-06-20T03:37:06.162Z,2.30
2019-06-20T03:41:57.098Z,2.60
2019-06-20T03:46:48.828Z,2.50
2019-06-20T03:51:39.733Z,2.97
2019-06-20T03:56:30.643Z,2.83
2019-06-20T04:01:21.562Z,2.80
2019-06-20T04:06:12.466Z,2.37
2019-06-20T04:11:03.386Z,2.43
2019-06-20T04:15:54.300Z,2.30
2019-06-20T04:20:45.232Z,2.70
2019-06-20T04:25:36.139Z,2.60
2019-06-20T04:30:27.053Z,3.13
2019-06-20T04:35:17.969Z,2.60
2019-06-20T04:40:08.882Z,2.73
2019-06-20T04:44:59.801Z,2.60
2019-06-20T04:49:50.769Z,2.77
2019-06-20T04:54:42.713Z,2.67
2019-06-20T04:59:33.734Z,3.13
2019-06-20T05:04:24.730Z,2.60
2019-06-20T05:09:15.606Z,3.23
2019-06-20T05:14:07.254Z,2.90
2019-06-20T05:18:58.241Z,2.73
2019-06-20T05:23:49.267Z,2.33
2019-06-20T05:28:40.975Z,2.77
2019-06-20T05:33:31.918Z,2.70
2019-06-20T05:38:22.945Z,2.33
2019-06-20T05:43:14.614Z,2.62
2019-06-20T05:48:05.627Z,2.80
2019-06-20T05:52:56.594Z,3.10
2019-06-20T05:57:47.561Z,2.73
2019-06-20T06:02:38.574Z,3.40
2019-06-20T06:07:30.297Z,3.20
2019-06-20T06:12:21.947Z,3.17
2019-06-20T06:17:13.621Z,3.33
2019-06-20T06:22:04.562Z,3.78
2019-06-20T06:26:59.575Z,2.90
2019-06-20T06:31:47.195Z,3.60
2019-06-20T06:36:38.095Z,4.27
2019-06-20T06:41:29.058Z,4.50
2019-06-20T06:46:19.993Z,4.05
2019-06-20T06:51:10.891Z,4.13
2019-06-20T06:56:01.815Z,4.37
2019-06-20T07:00:53.584Z,4.07
2019-06-20T07:05:45.222Z,3.83
2019-06-20T07:10:36.877Z,4.30
2019-06-20T07:15:27.800Z,3.50
2019-06-20T07:20:18.901Z,3.70
2019-06-20T07:25:10.550Z,3.90
2019-06-20T07:30:01.493Z,3.67
2019-06-20T07:34:52.447Z,3.70
2019-06-20T07:39:43.354Z,3.67
2019-06-20T07:44:34.275Z,3.40
2019-06-20T07:49:25.182Z,3.40
2019-06-20T07:54:16.105Z,3.60
2019-06-20T07:59:07.085Z,3.70
2019-06-20T08:03:58.011Z,3.55
2019-06-20T08:08:48.977Z,3.30
2019-06-20T08:13:39.994Z,3.60
2019-06-20T08:18:31.018Z,3.07
2019-06-20T08:23:22.044Z,3.37
2019-06-20T08:28:13.066Z,2.63
2019-06-20T08:33:09.675Z,2.60
2019-06-20T08:37:56.080Z,2.72
2019-06-20T08:42:46.734Z,2.27
2019-06-20T08:47:37.722Z,2.87
2019-06-20T08:52:29.380Z,2.87
2019-06-20T08:57:23.281Z,2.27
2019-06-20T09:02:11.326Z,2.90
2019-06-20T09:11:55.089Z,2.80
2019-06-20T09:16:45.817Z,3.10
2019-06-20T09:21:36.686Z,2.47
2019-06-20T09:26:27.622Z,2.50
2019-06-20T09:31:18.589Z,2.70
2019-06-20T09:36:09.530Z,2.70
2019-06-20T09:41:01.197Z,3.00
2019-06-20T09:45:53.150Z,2.63
2019-06-20T09:50:43.850Z,3.10
2019-06-20T09:55:34.766Z,3.00
2019-06-20T10:00:25.676Z,2.90
2019-06-20T10:05:16.591Z,2.57
2019-06-20T10:10:07.558Z,3.50
2019-06-20T10:14:58.480Z,3.10
2019-06-20T10:19:49.878Z,3.13
2019-06-20T10:24:40.426Z,3.00
2019-06-20T10:29:31.367Z,2.60
2019-06-20T10:34:22.366Z,2.73
2019-06-20T10:39:13.388Z,3.10
2019-06-20T10:44:04.317Z,2.90
2019-06-20T10:48:56.046Z,3.08
2019-06-20T10:53:47.184Z,3.20
2019-06-20T10:58:41.477Z,2.40
2019-06-20T11:03:29.868Z,2.67
2019-06-20T11:08:20.839Z,2.70
2019-06-20T11:13:11.750Z,2.63
2019-06-20T11:18:02.694Z,2.20
2019-06-20T11:22:53.746Z,2.70
2019-06-20T11:27:44.792Z,2.50
2019-06-20T11:32:36.596Z,2.40
2019-06-20T11:37:27.529Z,2.40
2019-06-20T11:42:18.522Z,2.20
2019-06-20T11:47:10.932Z,2.10
2019-06-20T11:52:01.872Z,2.30
2019-06-20T11:56:52.785Z,2.63
2019-06-20T12:01:44.901Z,1.87
2019-06-20T12:06:35.429Z,2.50
2019-06-20T12:11:26.378Z,2.40
2019-06-20T12:16:17.294Z,2.30
2019-06-20T12:21:08.342Z,2.33
2019-06-20T12:26:00.050Z,2.77
2019-06-20T12:30:50.962Z,2.93
2019-06-20T12:35:42.782Z,2.60
2019-06-20T12:40:33.718Z,2.63
2019-06-20T12:45:24.642Z,2.57
2019-06-20T12:50:15.577Z,2.70
2019-06-20T12:55:06.598Z,2.60
2019-06-20T12:59:58.336Z,3.30
2019-06-20T13:04:50.606Z,2.90
2019-06-20T13:09:42.330Z,2.53
2019-06-20T13:14:33.026Z,2.60
2019-06-20T13:19:24.079Z,2.90
2019-06-20T13:24:15.828Z,3.03
2019-06-20T13:29:06.819Z,3.20
2019-06-20T13:33:57.894Z,3.35
2019-06-20T13:38:48.903Z,2.70
2019-06-20T13:43:39.766Z,3.23
2019-06-20T13:48:32.218Z,3.17
2019-06-20T13:53:23.238Z,2.93
2019-06-20T13:58:14.190Z,3.63
2019-06-20T14:03:05.930Z,2.80
2019-06-20T14:07:57.684Z,3.57
2019-06-20T14:12:48.846Z,3.77
2019-06-20T14:17:41.448Z,3.28
2019-06-20T14:22:31.324Z,3.57
2019-06-20T14:27:22.233Z,3.17
2019-06-20T14:32:21.763Z,3.33
2019-06-20T14:37:04.981Z,3.30
2019-06-20T14:41:56.659Z,3.33
2019-06-20T14:46:47.651Z,3.30
2019-06-20T14:51:39.395Z,3.00
2019-06-20T14:56:30.410Z,3.77
2019-06-20T15:01:21.332Z,3.40
2019-06-20T15:06:13.834Z,3.87
2019-06-20T15:11:04.815Z,3.73
2019-06-20T15:15:56.523Z,3.30
2019-06-20T15:20:49.758Z,2.90
2019-06-20T15:25:38.356Z,3.13
2019-06-20T15:30:29.289Z,3.20
2019-06-20T15:35:20.230Z,3.10
2019-06-20T15:40:11.993Z,2.77
2019-06-20T15:45:03.634Z,2.80
2019-06-20T15:49:54.546Z,2.50
2019-06-20T15:54:45.478Z,2.80
2019-06-20T15:59:36.434Z,2.60
2019-06-20T16:04:27.396Z,2.78
2019-06-20T16:09:19.089Z,3.03
2019-06-20T16:14:10.121Z,2.80
2019-06-20T16:19:01.138Z,2.90
2019-06-20T16:23:52.176Z,3.07
2019-06-20T16:28:43.138Z,2.50
2019-06-20T16:33:34.118Z,3.37
2019-06-20T16:38:25.838Z,2.90
2019-06-20T16:43:16.769Z,2.87
2019-06-20T16:48:07.770Z,3.30
2019-06-20T16:53:01.153Z,2.83
2019-06-20T16:57:49.610Z,2.93
2019-06-20T17:02:40.599Z,2.80
2019-06-20T17:07:32.269Z,2.50
2019-06-20T17:12:23.291Z,2.80
2019-06-20T17:17:14.204Z,2.75
2019-06-20T17:22:05.142Z,2.80
2019-06-20T17:26:56.058Z,2.70
2019-06-20T17:31:47.802Z,2.90
2019-06-20T17:36:39.499Z,2.80
2019-06-20T17:41:30.443Z,2.30
2019-06-20T17:46:21.524Z,2.70
2019-06-20T17:51:12.483Z,2.47
2019-06-20T17:56:03.594Z,3.00
2019-06-20T18:00:54.644Z,2.97
2019-06-20T18:05:45.693Z,2.60
2019-06-20T18:10:36.734Z,2.80
2019-06-20T18:15:27.694Z,2.85
2019-06-20T18:20:18.615Z,2.33
2019-06-20T18:25:09.659Z,2.97
2019-06-20T18:30:01.477Z,3.10
2019-06-20T18:35:01.756Z,3.20
2019-06-20T18:39:44.936Z,3.23
2019-06-20T18:44:35.870Z,3.00
2019-06-20T18:49:26.946Z,2.73
2019-06-20T18:54:17.897Z,2.73
2019-06-20T18:59:08.822Z,3.07
2019-06-20T19:03:59.760Z,2.90
2019-06-20T19:08:50.766Z,2.90
2019-06-20T19:13:41.721Z,2.77
2019-06-20T19:18:33.427Z,2.80
2019-06-20T19:23:24.449Z,2.97
2019-06-20T19:28:15.465Z,3.40
2019-06-20T19:33:06.487Z,3.00
2019-06-20T19:37:57.508Z,3.00
2019-06-20T19:42:48.531Z,3.57
2019-06-20T19:47:39.910Z,2.97
2019-06-20T19:58:06.572Z,3.60
2019-06-20T20:03:06.358Z,3.12
2019-06-20T20:07:59.354Z,2.90
2019-06-20T20:12:51.420Z,3.10
2019-06-20T20:17:45.094Z,3.40
2019-06-20T20:22:45.600Z,3.97
2019-06-20T20:27:36.553Z,3.80
2019-06-20T20:32:27.603Z,3.50
2019-06-20T20:37:20.552Z,3.40
2019-06-20T20:42:17.549Z,3.27
2019-06-20T20:47:06.418Z,3.65
2019-06-20T20:51:57.389Z,3.90
2019-06-20T20:56:50.364Z,3.27
2019-06-20T21:01:46.301Z,3.60
2019-06-20T21:06:44.375Z,3.60
2019-06-20T21:11:36.321Z,4.03
2019-06-20T21:16:27.401Z,3.40
2019-06-20T21:21:18.336Z,3.33
2019-06-20T21:26:10.322Z,4.13
2019-06-20T21:31:17.101Z,3.40
2019-06-20T21:36:11.107Z,3.60
2019-06-20T21:41:04.263Z,3.67
2019-06-20T21:45:58.449Z,4.20
2019-06-20T21:50:54.782Z,4.13
2019-06-20T21:55:56.634Z,4.40
2019-06-20T22:00:55.021Z,4.63
2019-06-20T22:05:49.994Z,4.27
2019-06-20T22:10:45.743Z,4.10
2019-06-20T22:15:37.796Z,4.00
2019-06-20T22:20:28.884Z,4.90
2019-06-20T22:25:27.443Z,4.40
2019-06-20T22:30:25.452Z,4.47
2019-06-20T22:35:16.381Z,4.40
2019-06-20T22:40:09.877Z,4.60
2019-06-20T22:45:01.637Z,4.33
2019-06-20T22:49:56.328Z,5.10
2019-06-20T22:54:54.975Z,5.00
2019-06-20T22:59:57.150Z,5.23
2019-06-20T23:04:50.173Z,4.93
2019-06-20T23:09:43.854Z,5.20
2019-06-20T23:14:39.593Z,5.10
2019-06-20T23:19:32.656Z,5.20
2019-06-20T23:24:24.387Z,5.47
2019-06-20T23:29:22.170Z,5.47
2019-06-20T23:34:20.417Z,6.40
2019-06-20T23:39:16.001Z,5.20
2019-06-20T23:44:11.831Z,6.30
2019-06-20T23:49:11.409Z,5.50
2019-06-20T23:54:03.409Z,6.10
2019-06-20T23:58:59.333Z,6.00
